Pollenca, Spain
Current Conditions -  °F | °C
As of 1:00 PM on Monday 26 Jan 2015 (Local Time) from LEPA Reporting Station
Overcast Overcast  
Wind Chill: 52°   Ceiling: 5000
Heat Index: 52°   Visibility: 6mi
Dew Point: 37°   Wind: 18mph
Humidity: 58%   Direction: 60°ENE
Pressure: 30.3"   Gusts: NA
Location:  39.88°N, 3.02°E
Report Text: LEPA 261200Z 06016KT 9999 FEW030 OVC050 11/03 Q1026 NOSIG
Loading
Personal Weather Stations






























Interactive Weather Map New forecast layout! Learn more

10-Day Weather Forecast

Advertisements
Track Severe Weather on mobile